sensor_id;sensor_type;location;lat;lon;timestamp;P1;durP1;ratioP1;P2;durP2;ratioP2
71769;SDS011;66386;52.122;5.420;2023-05-10T00:00:00;15.90;;;8.80;;
71769;SDS011;66386;52.122;5.420;2023-05-10T00:02:26;16.35;;;8.88;;
71769;SDS011;66386;52.122;5.420;2023-05-10T00:04:53;14.80;;;8.90;;
71769;SDS011;66386;52.122;5.420;2023-05-10T00:07:19;15.07;;;8.32;;
71769;SDS011;66386;52.122;5.420;2023-05-10T00:09:46;17.88;;;9.30;;
71769;SDS011;66386;52.122;5.420;2023-05-10T00:12:12;16.87;;;9.43;;
71769;SDS011;66386;52.122;5.420;2023-05-10T00:14:39;16.38;;;9.15;;
71769;SDS011;66386;52.122;5.420;2023-05-10T00:17:05;16.85;;;9.68;;
71769;SDS011;66386;52.122;5.420;2023-05-10T00:19:32;15.90;;;9.00;;
71769;SDS011;66386;52.122;5.420;2023-05-10T00:21:58;15.40;;;8.80;;
71769;SDS011;66386;52.122;5.420;2023-05-10T00:24:25;16.40;;;9.13;;
71769;SDS011;66386;52.122;5.420;2023-05-10T00:26:51;17.58;;;10.10;;
71769;SDS011;66386;52.122;5.420;2023-05-10T00:29:17;19.30;;;10.23;;
71769;SDS011;66386;52.122;5.420;2023-05-10T00:31:44;18.23;;;9.70;;
71769;SDS011;66386;52.122;5.420;2023-05-10T00:34:10;22.33;;;9.15;;
71769;SDS011;66386;52.122;5.420;2023-05-10T00:36:37;20.57;;;10.53;;
71769;SDS011;66386;52.122;5.420;2023-05-10T00:39:03;19.27;;;9.50;;
71769;SDS011;66386;52.122;5.420;2023-05-10T00:41:30;20.80;;;11.20;;
71769;SDS011;66386;52.122;5.420;2023-05-10T00:43:59;22.73;;;10.98;;
71769;SDS011;66386;52.122;5.420;2023-05-10T00:46:28;28.83;;;12.85;;
71769;SDS011;66386;52.122;5.420;2023-05-10T00:48:54;39.40;;;16.67;;
71769;SDS011;66386;52.122;5.420;2023-05-10T00:51:21;37.22;;;17.65;;
71769;SDS011;66386;52.122;5.420;2023-05-10T00:53:48;34.95;;;16.88;;
71769;SDS011;66386;52.122;5.420;2023-05-10T00:56:15;37.25;;;16.73;;
71769;SDS011;66386;52.122;5.420;2023-05-10T00:58:42;41.80;;;17.67;;
71769;SDS011;66386;52.122;5.420;2023-05-10T01:01:09;39.07;;;17.03;;
71769;SDS011;66386;52.122;5.420;2023-05-10T01:03:35;39.17;;;17.52;;
71769;SDS011;66386;52.122;5.420;2023-05-10T01:06:02;39.50;;;16.38;;
71769;SDS011;66386;52.122;5.420;2023-05-10T01:08:29;40.42;;;16.88;;
71769;SDS011;66386;52.122;5.420;2023-05-10T01:10:55;41.08;;;17.20;;
71769;SDS011;66386;52.122;5.420;2023-05-10T01:13:29;39.00;;;16.30;;
71769;SDS011;66386;52.122;5.420;2023-05-10T01:15:59;38.95;;;17.15;;
71769;SDS011;66386;52.122;5.420;2023-05-10T01:18:28;42.70;;;17.10;;
71769;SDS011;66386;52.122;5.420;2023-05-10T01:23:59;42.05;;;17.17;;
71769;SDS011;66386;52.122;5.420;2023-05-10T01:29:46;35.63;;;15.88;;
71769;SDS011;66386;52.122;5.420;2023-05-10T01:35:43;43.28;;;17.08;;
71769;SDS011;66386;52.122;5.420;2023-05-10T01:38:38;41.72;;;16.60;;
71769;SDS011;66386;52.122;5.420;2023-05-10T01:41:41;35.10;;;15.73;;
71769;SDS011;66386;52.122;5.420;2023-05-10T01:49:53;42.47;;;17.35;;
71769;SDS011;66386;52.122;5.420;2023-05-10T01:52:25;49.15;;;19.40;;
71769;SDS011;66386;52.122;5.420;2023-05-10T01:55:00;51.97;;;18.67;;
71769;SDS011;66386;52.122;5.420;2023-05-10T01:57:35;46.00;;;18.40;;
71769;SDS011;66386;52.122;5.420;2023-05-10T02:00:06;42.85;;;18.60;;
71769;SDS011;66386;52.122;5.420;2023-05-10T02:02:35;51.72;;;18.27;;
71769;SDS011;66386;52.122;5.420;2023-05-10T02:05:05;49.80;;;19.50;;
71769;SDS011;66386;52.122;5.420;2023-05-10T02:07:35;45.37;;;18.30;;
71769;SDS011;66386;52.122;5.420;2023-05-10T02:10:04;41.80;;;17.35;;
71769;SDS011;66386;52.122;5.420;2023-05-10T02:12:32;41.50;;;17.13;;
71769;SDS011;66386;52.122;5.420;2023-05-10T02:15:02;43.88;;;17.48;;
71769;SDS011;66386;52.122;5.420;2023-05-10T02:17:31;48.92;;;18.17;;
71769;SDS011;66386;52.122;5.420;2023-05-10T02:19:59;43.70;;;16.97;;
71769;SDS011;66386;52.122;5.420;2023-05-10T02:22:27;42.67;;;17.77;;
71769;SDS011;66386;52.122;5.420;2023-05-10T02:24:54;45.65;;;16.88;;
71769;SDS011;66386;52.122;5.420;2023-05-10T02:27:24;46.55;;;18.67;;
71769;SDS011;66386;52.122;5.420;2023-05-10T02:29:53;46.25;;;17.35;;
71769;SDS011;66386;52.122;5.420;2023-05-10T02:32:21;46.67;;;18.53;;
71769;SDS011;66386;52.122;5.420;2023-05-10T02:34:49;43.95;;;18.00;;
71769;SDS011;66386;52.122;5.420;2023-05-10T02:37:21;46.13;;;17.08;;
71769;SDS011;66386;52.122;5.420;2023-05-10T02:39:49;42.70;;;17.35;;
71769;SDS011;66386;52.122;5.420;2023-05-10T02:42:17;47.80;;;17.50;;
71769;SDS011;66386;52.122;5.420;2023-05-10T02:44:47;46.77;;;18.17;;
71769;SDS011;66386;52.122;5.420;2023-05-10T02:47:16;51.40;;;18.50;;
71769;SDS011;66386;52.122;5.420;2023-05-10T02:49:44;50.55;;;18.02;;
71769;SDS011;66386;52.122;5.420;2023-05-10T02:52:10;51.85;;;18.15;;
71769;SDS011;66386;52.122;5.420;2023-05-10T02:54:45;52.22;;;20.13;;
71769;SDS011;66386;52.122;5.420;2023-05-10T02:57:17;50.13;;;19.67;;
71769;SDS011;66386;52.122;5.420;2023-05-10T03:00:00;56.00;;;20.00;;
71769;SDS011;66386;52.122;5.420;2023-05-10T03:02:29;45.17;;;18.23;;
71769;SDS011;66386;52.122;5.420;2023-05-10T03:04:57;50.58;;;19.73;;
71769;SDS011;66386;52.122;5.420;2023-05-10T03:07:23;51.78;;;19.50;;
71769;SDS011;66386;52.122;5.420;2023-05-10T03:09:50;67.63;;;24.03;;
71769;SDS011;66386;52.122;5.420;2023-05-10T03:18:15;61.42;;;21.50;;
71769;SDS011;66386;52.122;5.420;2023-05-10T03:20:48;71.97;;;22.05;;
71769;SDS011;66386;52.122;5.420;2023-05-10T03:25:53;64.68;;;20.88;;
71769;SDS011;66386;52.122;5.420;2023-05-10T03:28:20;64.13;;;20.55;;
71769;SDS011;66386;52.122;5.420;2023-05-10T03:30:47;68.25;;;21.67;;
71769;SDS011;66386;52.122;5.420;2023-05-10T03:33:15;70.78;;;21.38;;
71769;SDS011;66386;52.122;5.420;2023-05-10T03:35:42;62.63;;;21.03;;
71769;SDS011;66386;52.122;5.420;2023-05-10T03:38:10;68.45;;;22.15;;
71769;SDS011;66386;52.122;5.420;2023-05-10T03:40:36;65.97;;;21.33;;
71769;SDS011;66386;52.122;5.420;2023-05-10T03:43:03;65.55;;;20.23;;
71769;SDS011;66386;52.122;5.420;2023-05-10T03:45:30;65.10;;;20.73;;
71769;SDS011;66386;52.122;5.420;2023-05-10T03:47:57;65.67;;;19.40;;
71769;SDS011;66386;52.122;5.420;2023-05-10T03:50:24;65.88;;;19.20;;
71769;SDS011;66386;52.122;5.420;2023-05-10T03:52:51;58.97;;;19.38;;
71769;SDS011;66386;52.122;5.420;2023-05-10T03:55:19;68.15;;;21.13;;
71769;SDS011;66386;52.122;5.420;2023-05-10T03:57:46;68.20;;;21.95;;
71769;SDS011;66386;52.122;5.420;2023-05-10T04:00:15;58.73;;;19.10;;
71769;SDS011;66386;52.122;5.420;2023-05-10T04:02:42;66.03;;;20.17;;
71769;SDS011;66386;52.122;5.420;2023-05-10T04:05:11;61.10;;;20.45;;
71769;SDS011;66386;52.122;5.420;2023-05-10T04:07:37;68.65;;;19.20;;
71769;SDS011;66386;52.122;5.420;2023-05-10T04:10:04;65.55;;;20.77;;
71769;SDS011;66386;52.122;5.420;2023-05-10T04:12:31;66.07;;;21.03;;
71769;SDS011;66386;52.122;5.420;2023-05-10T04:14:57;58.58;;;19.67;;
71769;SDS011;66386;52.122;5.420;2023-05-10T04:17:23;58.42;;;19.08;;
71769;SDS011;66386;52.122;5.420;2023-05-10T04:19:50;61.47;;;19.83;;
71769;SDS011;66386;52.122;5.420;2023-05-10T04:22:19;56.92;;;18.90;;
71769;SDS011;66386;52.122;5.420;2023-05-10T04:24:45;60.77;;;19.30;;
71769;SDS011;66386;52.122;5.420;2023-05-10T04:27:11;56.50;;;18.05;;
71769;SDS011;66386;52.122;5.420;2023-05-10T04:29:38;51.33;;;17.85;;
71769;SDS011;66386;52.122;5.420;2023-05-10T04:32:04;57.67;;;18.25;;
71769;SDS011;66386;52.122;5.420;2023-05-10T04:34:31;54.20;;;17.38;;
71769;SDS011;66386;52.122;5.420;2023-05-10T04:37:00;66.40;;;20.20;;
71769;SDS011;66386;52.122;5.420;2023-05-10T04:39:26;59.60;;;19.83;;
71769;SDS011;66386;52.122;5.420;2023-05-10T04:41:53;62.58;;;19.27;;
71769;SDS011;66386;52.122;5.420;2023-05-10T04:44:19;60.33;;;18.77;;
71769;SDS011;66386;52.122;5.420;2023-05-10T04:46:46;61.90;;;19.42;;
71769;SDS011;66386;52.122;5.420;2023-05-10T04:49:12;57.57;;;18.10;;
71769;SDS011;66386;52.122;5.420;2023-05-10T04:51:39;60.35;;;19.55;;
71769;SDS011;66386;52.122;5.420;2023-05-10T04:54:05;62.22;;;19.65;;
71769;SDS011;66386;52.122;5.420;2023-05-10T04:56:32;58.30;;;19.67;;
71769;SDS011;66386;52.122;5.420;2023-05-10T04:58:58;55.78;;;18.67;;
71769;SDS011;66386;52.122;5.420;2023-05-10T05:01:25;55.87;;;18.93;;
71769;SDS011;66386;52.122;5.420;2023-05-10T05:03:52;65.50;;;20.13;;
71769;SDS011;66386;52.122;5.420;2023-05-10T05:06:19;60.40;;;20.10;;
71769;SDS011;66386;52.122;5.420;2023-05-10T05:08:47;59.63;;;18.73;;
71769;SDS011;66386;52.122;5.420;2023-05-10T05:11:15;55.80;;;19.38;;
71769;SDS011;66386;52.122;5.420;2023-05-10T05:13:41;63.50;;;19.80;;
71769;SDS011;66386;52.122;5.420;2023-05-10T05:16:08;55.50;;;19.02;;
71769;SDS011;66386;52.122;5.420;2023-05-10T05:18:34;53.47;;;20.27;;
71769;SDS011;66386;52.122;5.420;2023-05-10T05:21:01;56.50;;;19.08;;
71769;SDS011;66386;52.122;5.420;2023-05-10T05:23:27;58.10;;;19.60;;
71769;SDS011;66386;52.122;5.420;2023-05-10T05:25:53;58.37;;;20.43;;
71769;SDS011;66386;52.122;5.420;2023-05-10T05:28:20;55.85;;;19.63;;
71769;SDS011;66386;52.122;5.420;2023-05-10T05:30:47;52.67;;;19.60;;
71769;SDS011;66386;52.122;5.420;2023-05-10T05:33:13;62.08;;;20.65;;
71769;SDS011;66386;52.122;5.420;2023-05-10T05:35:41;62.35;;;19.38;;
71769;SDS011;66386;52.122;5.420;2023-05-10T05:38:10;61.53;;;19.87;;
71769;SDS011;66386;52.122;5.420;2023-05-10T05:40:37;51.95;;;21.40;;
71769;SDS011;66386;52.122;5.420;2023-05-10T05:43:03;60.60;;;19.95;;
71769;SDS011;66386;52.122;5.420;2023-05-10T05:45:30;54.83;;;21.85;;
71769;SDS011;66386;52.122;5.420;2023-05-10T05:47:56;54.47;;;19.58;;
71769;SDS011;66386;52.122;5.420;2023-05-10T05:50:23;50.97;;;19.43;;
71769;SDS011;66386;52.122;5.420;2023-05-10T05:52:49;53.10;;;20.23;;
71769;SDS011;66386;52.122;5.420;2023-05-10T05:55:16;54.70;;;21.42;;
71769;SDS011;66386;52.122;5.420;2023-05-10T05:57:44;48.50;;;19.45;;
71769;SDS011;66386;52.122;5.420;2023-05-10T06:00:10;55.38;;;20.10;;
71769;SDS011;66386;52.122;5.420;2023-05-10T06:02:37;51.50;;;19.03;;
71769;SDS011;66386;52.122;5.420;2023-05-10T06:05:03;58.33;;;20.85;;
71769;SDS011;66386;52.122;5.420;2023-05-10T06:07:30;55.75;;;18.85;;
71769;SDS011;66386;52.122;5.420;2023-05-10T06:09:57;51.95;;;18.83;;
71769;SDS011;66386;52.122;5.420;2023-05-10T06:12:23;40.65;;;16.77;;
71769;SDS011;66386;52.122;5.420;2023-05-10T06:14:50;40.77;;;16.50;;
71769;SDS011;66386;52.122;5.420;2023-05-10T06:17:16;50.38;;;18.38;;
71769;SDS011;66386;52.122;5.420;2023-05-10T06:19:42;42.22;;;17.40;;
71769;SDS011;66386;52.122;5.420;2023-05-10T06:22:09;46.00;;;18.38;;
71769;SDS011;66386;52.122;5.420;2023-05-10T06:24:36;44.92;;;17.48;;
71769;SDS011;66386;52.122;5.420;2023-05-10T06:27:02;41.50;;;17.33;;
71769;SDS011;66386;52.122;5.420;2023-05-10T06:29:30;45.88;;;18.15;;
71769;SDS011;66386;52.122;5.420;2023-05-10T06:31:56;45.35;;;18.17;;
71769;SDS011;66386;52.122;5.420;2023-05-10T06:34:23;45.08;;;17.77;;
71769;SDS011;66386;52.122;5.420;2023-05-10T06:36:50;45.05;;;16.65;;
71769;SDS011;66386;52.122;5.420;2023-05-10T06:39:16;35.03;;;15.57;;
71769;SDS011;66386;52.122;5.420;2023-05-10T06:41:43;40.47;;;15.73;;
71769;SDS011;66386;52.122;5.420;2023-05-10T06:44:09;34.22;;;13.88;;
71769;SDS011;66386;52.122;5.420;2023-05-10T06:46:35;35.30;;;14.65;;
71769;SDS011;66386;52.122;5.420;2023-05-10T06:49:02;34.42;;;13.63;;
71769;SDS011;66386;52.122;5.420;2023-05-10T06:51:29;35.43;;;14.77;;
71769;SDS011;66386;52.122;5.420;2023-05-10T06:53:55;36.40;;;13.18;;
71769;SDS011;66386;52.122;5.420;2023-05-10T06:56:22;32.03;;;12.63;;
71769;SDS011;66386;52.122;5.420;2023-05-10T06:58:48;26.48;;;12.80;;
71769;SDS011;66386;52.122;5.420;2023-05-10T07:01:15;29.60;;;12.18;;
71769;SDS011;66386;52.122;5.420;2023-05-10T07:03:42;28.00;;;11.70;;
71769;SDS011;66386;52.122;5.420;2023-05-10T07:06:08;27.10;;;10.52;;
71769;SDS011;66386;52.122;5.420;2023-05-10T07:08:55;17.95;;;8.75;;
71769;SDS011;66386;52.122;5.420;2023-05-10T07:11:21;21.38;;;9.10;;
71769;SDS011;66386;52.122;5.420;2023-05-10T07:13:48;18.73;;;8.13;;
71769;SDS011;66386;52.122;5.420;2023-05-10T07:16:14;17.90;;;8.63;;
71769;SDS011;66386;52.122;5.420;2023-05-10T07:18:41;14.68;;;8.05;;
71769;SDS011;66386;52.122;5.420;2023-05-10T07:21:07;19.75;;;8.93;;
71769;SDS011;66386;52.122;5.420;2023-05-10T07:23:34;18.83;;;8.05;;
71769;SDS011;66386;52.122;5.420;2023-05-10T07:26:01;15.43;;;7.38;;
71769;SDS011;66386;52.122;5.420;2023-05-10T07:28:28;16.23;;;7.27;;
71769;SDS011;66386;52.122;5.420;2023-05-10T07:30:55;14.55;;;7.28;;
71769;SDS011;66386;52.122;5.420;2023-05-10T07:33:21;13.48;;;7.25;;
71769;SDS011;66386;52.122;5.420;2023-05-10T07:35:48;18.48;;;7.82;;
71769;SDS011;66386;52.122;5.420;2023-05-10T07:38:15;15.38;;;7.07;;
71769;SDS011;66386;52.122;5.420;2023-05-10T07:40:43;11.27;;;6.47;;
71769;SDS011;66386;52.122;5.420;2023-05-10T07:43:09;14.88;;;7.43;;
71769;SDS011;66386;52.122;5.420;2023-05-10T07:45:36;13.23;;;7.05;;
71769;SDS011;66386;52.122;5.420;2023-05-10T07:48:02;12.98;;;7.10;;
71769;SDS011;66386;52.122;5.420;2023-05-10T07:50:29;17.42;;;7.03;;
71769;SDS011;66386;52.122;5.420;2023-05-10T07:52:55;15.13;;;7.30;;
71769;SDS011;66386;52.122;5.420;2023-05-10T07:55:22;12.32;;;6.53;;
71769;SDS011;66386;52.122;5.420;2023-05-10T07:57:49;13.70;;;6.75;;
71769;SDS011;66386;52.122;5.420;2023-05-10T08:00:19;16.98;;;7.95;;
71769;SDS011;66386;52.122;5.420;2023-05-10T08:02:46;12.55;;;6.28;;
71769;SDS011;66386;52.122;5.420;2023-05-10T08:05:13;12.33;;;6.77;;
71769;SDS011;66386;52.122;5.420;2023-05-10T08:07:41;11.55;;;6.60;;
71769;SDS011;66386;52.122;5.420;2023-05-10T08:10:08;12.32;;;6.80;;
71769;SDS011;66386;52.122;5.420;2023-05-10T08:12:37;10.00;;;6.40;;
71769;SDS011;66386;52.122;5.420;2023-05-10T08:15:04;10.35;;;6.28;;
71769;SDS011;66386;52.122;5.420;2023-05-10T08:17:31;12.17;;;6.37;;
71769;SDS011;66386;52.122;5.420;2023-05-10T08:19:58;13.90;;;6.45;;
71769;SDS011;66386;52.122;5.420;2023-05-10T08:22:25;10.32;;;6.78;;
71769;SDS011;66386;52.122;5.420;2023-05-10T08:24:52;13.35;;;6.95;;
71769;SDS011;66386;52.122;5.420;2023-05-10T08:27:18;11.18;;;6.55;;
71769;SDS011;66386;52.122;5.420;2023-05-10T08:29:45;13.77;;;7.27;;
71769;SDS011;66386;52.122;5.420;2023-05-10T08:32:15;14.57;;;7.68;;
71769;SDS011;66386;52.122;5.420;2023-05-10T08:34:41;14.90;;;7.82;;
71769;SDS011;66386;52.122;5.420;2023-05-10T08:37:08;15.82;;;8.07;;
71769;SDS011;66386;52.122;5.420;2023-05-10T08:39:35;12.40;;;7.03;;
71769;SDS011;66386;52.122;5.420;2023-05-10T08:42:02;16.53;;;7.33;;
71769;SDS011;66386;52.122;5.420;2023-05-10T08:44:31;12.02;;;7.57;;
71769;SDS011;66386;52.122;5.420;2023-05-10T08:46:58;15.15;;;8.02;;
71769;SDS011;66386;52.122;5.420;2023-05-10T08:49:28;14.65;;;7.45;;
71769;SDS011;66386;52.122;5.420;2023-05-10T08:51:57;14.95;;;7.95;;
71769;SDS011;66386;52.122;5.420;2023-05-10T08:54:29;13.67;;;7.70;;
71769;SDS011;66386;52.122;5.420;2023-05-10T08:56:57;13.68;;;7.65;;
71769;SDS011;66386;52.122;5.420;2023-05-10T08:59:24;11.65;;;7.53;;
71769;SDS011;66386;52.122;5.420;2023-05-10T09:01:51;12.73;;;8.23;;
71769;SDS011;66386;52.122;5.420;2023-05-10T09:04:19;14.98;;;8.35;;
71769;SDS011;66386;52.122;5.420;2023-05-10T09:06:47;14.77;;;7.70;;
71769;SDS011;66386;52.122;5.420;2023-05-10T09:09:14;10.77;;;6.88;;
71769;SDS011;66386;52.122;5.420;2023-05-10T09:11:42;10.82;;;6.85;;
71769;SDS011;66386;52.122;5.420;2023-05-10T09:14:09;13.35;;;6.80;;
71769;SDS011;66386;52.122;5.420;2023-05-10T09:16:36;11.00;;;7.07;;
71769;SDS011;66386;52.122;5.420;2023-05-10T09:19:03;9.07;;;5.87;;
71769;SDS011;66386;52.122;5.420;2023-05-10T09:21:30;8.40;;;5.72;;
71769;SDS011;66386;52.122;5.420;2023-05-10T09:23:57;8.95;;;5.35;;
71769;SDS011;66386;52.122;5.420;2023-05-10T09:26:29;8.98;;;5.55;;
71769;SDS011;66386;52.122;5.420;2023-05-10T09:28:56;6.25;;;4.50;;
71769;SDS011;66386;52.122;5.420;2023-05-10T09:31:24;6.47;;;4.77;;
71769;SDS011;66386;52.122;5.420;2023-05-10T09:34:10;5.07;;;3.90;;
71769;SDS011;66386;52.122;5.420;2023-05-10T09:36:48;7.53;;;4.97;;
71769;SDS011;66386;52.122;5.420;2023-05-10T09:39:16;6.03;;;4.70;;
71769;SDS011;66386;52.122;5.420;2023-05-10T09:41:44;8.50;;;5.30;;
71769;SDS011;66386;52.122;5.420;2023-05-10T09:44:10;7.07;;;4.43;;
71769;SDS011;66386;52.122;5.420;2023-05-10T09:46:36;6.18;;;3.92;;
71769;SDS011;66386;52.122;5.420;2023-05-10T09:49:03;5.05;;;3.47;;
71769;SDS011;66386;52.122;5.420;2023-05-10T09:51:31;4.32;;;3.17;;
71769;SDS011;66386;52.122;5.420;2023-05-10T09:54:14;5.47;;;3.35;;
71769;SDS011;66386;52.122;5.420;2023-05-10T09:56:42;4.53;;;3.30;;
71769;SDS011;66386;52.122;5.420;2023-05-10T09:59:10;5.97;;;4.00;;
71769;SDS011;66386;52.122;5.420;2023-05-10T10:01:38;5.63;;;3.75;;
71769;SDS011;66386;52.122;5.420;2023-05-10T10:04:05;4.97;;;3.53;;
71769;SDS011;66386;52.122;5.420;2023-05-10T10:06:39;6.25;;;3.08;;
71769;SDS011;66386;52.122;5.420;2023-05-10T10:09:06;3.77;;;2.70;;
71769;SDS011;66386;52.122;5.420;2023-05-10T10:11:34;6.43;;;3.28;;
71769;SDS011;66386;52.122;5.420;2023-05-10T10:14:05;5.45;;;2.97;;
71769;SDS011;66386;52.122;5.420;2023-05-10T10:16:31;4.65;;;3.10;;
71769;SDS011;66386;52.122;5.420;2023-05-10T10:18:58;4.35;;;2.92;;
71769;SDS011;66386;52.122;5.420;2023-05-10T10:21:25;4.50;;;3.13;;
71769;SDS011;66386;52.122;5.420;2023-05-10T10:23:52;9.30;;;3.53;;
71769;SDS011;66386;52.122;5.420;2023-05-10T10:26:19;5.90;;;3.40;;
71769;SDS011;66386;52.122;5.420;2023-05-10T10:34:22;8.03;;;3.93;;
71769;SDS011;66386;52.122;5.420;2023-05-10T10:36:53;5.57;;;4.22;;
71769;SDS011;66386;52.122;5.420;2023-05-10T10:39:21;5.70;;;4.18;;
71769;SDS011;66386;52.122;5.420;2023-05-10T10:41:52;6.32;;;4.72;;
71769;SDS011;66386;52.122;5.420;2023-05-10T10:44:24;6.22;;;3.95;;
71769;SDS011;66386;52.122;5.420;2023-05-10T10:54:47;5.88;;;3.80;;
71769;SDS011;66386;52.122;5.420;2023-05-10T10:57:19;5.45;;;4.15;;
71769;SDS011;66386;52.122;5.420;2023-05-10T10:59:48;7.60;;;4.63;;
71769;SDS011;66386;52.122;5.420;2023-05-10T11:02:34;6.28;;;4.25;;
71769;SDS011;66386;52.122;5.420;2023-05-10T11:07:54;7.60;;;4.15;;
71769;SDS011;66386;52.122;5.420;2023-05-10T11:10:21;5.80;;;4.05;;
71769;SDS011;66386;52.122;5.420;2023-05-10T11:12:58;7.03;;;4.07;;
71769;SDS011;66386;52.122;5.420;2023-05-10T11:15:30;6.60;;;4.07;;
71769;SDS011;66386;52.122;5.420;2023-05-10T11:17:58;6.43;;;3.72;;
71769;SDS011;66386;52.122;5.420;2023-05-10T11:20:28;7.10;;;3.50;;
71769;SDS011;66386;52.122;5.420;2023-05-10T11:23:10;5.68;;;4.07;;
71769;SDS011;66386;52.122;5.420;2023-05-10T11:25:42;5.17;;;3.70;;
71769;SDS011;66386;52.122;5.420;2023-05-10T11:28:12;5.18;;;3.42;;
71769;SDS011;66386;52.122;5.420;2023-05-10T11:30:39;5.95;;;3.50;;
71769;SDS011;66386;52.122;5.420;2023-05-10T11:33:07;5.90;;;2.83;;
71769;SDS011;66386;52.122;5.420;2023-05-10T11:35:38;4.15;;;3.53;;
71769;SDS011;66386;52.122;5.420;2023-05-10T11:38:09;4.93;;;3.47;;
71769;SDS011;66386;52.122;5.420;2023-05-10T11:40:37;6.90;;;3.40;;
71769;SDS011;66386;52.122;5.420;2023-05-10T11:43:04;5.40;;;3.13;;
71769;SDS011;66386;52.122;5.420;2023-05-10T11:45:35;5.80;;;3.83;;
71769;SDS011;66386;52.122;5.420;2023-05-10T11:48:02;4.88;;;3.03;;
71769;SDS011;66386;52.122;5.420;2023-05-10T11:50:29;3.20;;;2.70;;
71769;SDS011;66386;52.122;5.420;2023-05-10T11:52:56;4.53;;;3.15;;
71769;SDS011;66386;52.122;5.420;2023-05-10T11:55:23;7.28;;;3.13;;
71769;SDS011;66386;52.122;5.420;2023-05-10T11:57:59;4.10;;;2.78;;
71769;SDS011;66386;52.122;5.420;2023-05-10T12:00:27;6.50;;;2.58;;
71769;SDS011;66386;52.122;5.420;2023-05-10T12:02:54;4.07;;;2.23;;
71769;SDS011;66386;52.122;5.420;2023-05-10T12:05:21;3.92;;;2.30;;
71769;SDS011;66386;52.122;5.420;2023-05-10T12:07:48;4.93;;;2.28;;
71769;SDS011;66386;52.122;5.420;2023-05-10T12:10:15;2.70;;;2.50;;
71769;SDS011;66386;52.122;5.420;2023-05-10T12:12:44;3.38;;;2.47;;
71769;SDS011;66386;52.122;5.420;2023-05-10T12:15:12;3.83;;;2.90;;
71769;SDS011;66386;52.122;5.420;2023-05-10T12:17:45;4.00;;;1.95;;
71769;SDS011;66386;52.122;5.420;2023-05-10T12:20:13;4.50;;;1.70;;
71769;SDS011;66386;52.122;5.420;2023-05-10T12:22:52;3.00;;;1.75;;
71769;SDS011;66386;52.122;5.420;2023-05-10T12:25:21;2.72;;;1.67;;
71769;SDS011;66386;52.122;5.420;2023-05-10T12:27:52;3.73;;;1.97;;
71769;SDS011;66386;52.122;5.420;2023-05-10T12:30:25;4.07;;;2.40;;
71769;SDS011;66386;52.122;5.420;2023-05-10T12:32:53;2.50;;;2.00;;
71769;SDS011;66386;52.122;5.420;2023-05-10T12:35:25;2.53;;;2.22;;
71769;SDS011;66386;52.122;5.420;2023-05-10T12:37:51;3.85;;;2.47;;
71769;SDS011;66386;52.122;5.420;2023-05-10T12:40:18;5.03;;;1.80;;
71769;SDS011;66386;52.122;5.420;2023-05-10T12:42:44;3.10;;;2.05;;
71769;SDS011;66386;52.122;5.420;2023-05-10T12:45:11;3.80;;;1.63;;
71769;SDS011;66386;52.122;5.420;2023-05-10T12:47:38;2.55;;;1.73;;
71769;SDS011;66386;52.122;5.420;2023-05-10T12:50:09;2.75;;;1.65;;
71769;SDS011;66386;52.122;5.420;2023-05-10T12:52:35;4.20;;;2.33;;
71769;SDS011;66386;52.122;5.420;2023-05-10T12:55:02;2.40;;;1.85;;
71769;SDS011;66386;52.122;5.420;2023-05-10T12:57:29;3.67;;;1.85;;
71769;SDS011;66386;52.122;5.420;2023-05-10T12:59:55;2.40;;;1.83;;
71769;SDS011;66386;52.122;5.420;2023-05-10T13:02:22;2.80;;;1.50;;
71769;SDS011;66386;52.122;5.420;2023-05-10T13:04:49;1.60;;;1.10;;
71769;SDS011;66386;52.122;5.420;2023-05-10T13:07:16;2.45;;;1.20;;
71769;SDS011;66386;52.122;5.420;2023-05-10T13:09:42;3.33;;;1.20;;
71769;SDS011;66386;52.122;5.420;2023-05-10T13:12:09;2.30;;;1.20;;
71769;SDS011;66386;52.122;5.420;2023-05-10T13:14:36;1.58;;;1.20;;
71769;SDS011;66386;52.122;5.420;2023-05-10T13:17:02;3.93;;;2.50;;
71769;SDS011;66386;52.122;5.420;2023-05-10T13:19:28;4.97;;;3.38;;
71769;SDS011;66386;52.122;5.420;2023-05-10T13:21:55;3.25;;;2.45;;
71769;SDS011;66386;52.122;5.420;2023-05-10T13:24:22;4.20;;;2.70;;
71769;SDS011;66386;52.122;5.420;2023-05-10T13:26:48;4.00;;;3.13;;
71769;SDS011;66386;52.122;5.420;2023-05-10T13:29:15;5.20;;;3.17;;
71769;SDS011;66386;52.122;5.420;2023-05-10T13:31:44;5.95;;;3.00;;
71769;SDS011;66386;52.122;5.420;2023-05-10T13:34:10;4.22;;;2.67;;
71769;SDS011;66386;52.122;5.420;2023-05-10T13:36:37;4.82;;;3.03;;
71769;SDS011;66386;52.122;5.420;2023-05-10T13:39:04;6.85;;;2.90;;
71769;SDS011;66386;52.122;5.420;2023-05-10T13:41:31;4.23;;;2.20;;
71769;SDS011;66386;52.122;5.420;2023-05-10T13:43:57;6.25;;;2.20;;
71769;SDS011;66386;52.122;5.420;2023-05-10T13:46:24;4.32;;;2.17;;
71769;SDS011;66386;52.122;5.420;2023-05-10T13:48:50;8.63;;;2.58;;
71769;SDS011;66386;52.122;5.420;2023-05-10T13:51:17;3.95;;;2.70;;
71769;SDS011;66386;52.122;5.420;2023-05-10T13:53:43;7.60;;;3.73;;
71769;SDS011;66386;52.122;5.420;2023-05-10T13:56:10;4.93;;;3.35;;
71769;SDS011;66386;52.122;5.420;2023-05-10T13:58:36;8.00;;;3.15;;
71769;SDS011;66386;52.122;5.420;2023-05-10T14:01:03;5.13;;;2.97;;
71769;SDS011;66386;52.122;5.420;2023-05-10T14:03:30;3.65;;;2.78;;
71769;SDS011;66386;52.122;5.420;2023-05-10T14:05:57;6.00;;;3.63;;
71769;SDS011;66386;52.122;5.420;2023-05-10T14:08:24;8.80;;;3.05;;
71769;SDS011;66386;52.122;5.420;2023-05-10T14:10:50;8.05;;;3.63;;
71769;SDS011;66386;52.122;5.420;2023-05-10T14:13:18;9.77;;;3.65;;
71769;SDS011;66386;52.122;5.420;2023-05-10T14:15:44;5.60;;;3.22;;
71769;SDS011;66386;52.122;5.420;2023-05-10T14:18:11;6.30;;;3.93;;
71769;SDS011;66386;52.122;5.420;2023-05-10T14:20:37;4.78;;;3.17;;
71769;SDS011;66386;52.122;5.420;2023-05-10T14:23:03;6.75;;;3.80;;
71769;SDS011;66386;52.122;5.420;2023-05-10T14:25:30;5.32;;;3.42;;
71769;SDS011;66386;52.122;5.420;2023-05-10T14:27:56;7.53;;;3.30;;
71769;SDS011;66386;52.122;5.420;2023-05-10T14:30:23;8.03;;;3.40;;
71769;SDS011;66386;52.122;5.420;2023-05-10T14:32:49;7.68;;;3.92;;
71769;SDS011;66386;52.122;5.420;2023-05-10T14:35:16;7.00;;;3.30;;
71769;SDS011;66386;52.122;5.420;2023-05-10T14:37:45;6.80;;;3.58;;
71769;SDS011;66386;52.122;5.420;2023-05-10T14:40:11;7.90;;;4.13;;
71769;SDS011;66386;52.122;5.420;2023-05-10T14:42:38;6.20;;;3.57;;
71769;SDS011;66386;52.122;5.420;2023-05-10T14:45:04;8.27;;;4.43;;
71769;SDS011;66386;52.122;5.420;2023-05-10T14:47:31;6.45;;;3.92;;
71769;SDS011;66386;52.122;5.420;2023-05-10T14:49:58;8.73;;;4.75;;
71769;SDS011;66386;52.122;5.420;2023-05-10T14:52:24;8.02;;;4.13;;
71769;SDS011;66386;52.122;5.420;2023-05-10T14:54:51;7.30;;;4.20;;
71769;SDS011;66386;52.122;5.420;2023-05-10T14:57:18;8.43;;;4.45;;
71769;SDS011;66386;52.122;5.420;2023-05-10T14:59:44;8.02;;;4.05;;
71769;SDS011;66386;52.122;5.420;2023-05-10T15:02:11;10.10;;;4.38;;
71769;SDS011;66386;52.122;5.420;2023-05-10T15:04:39;7.75;;;4.30;;
71769;SDS011;66386;52.122;5.420;2023-05-10T15:07:05;7.70;;;4.07;;
71769;SDS011;66386;52.122;5.420;2023-05-10T15:09:32;8.55;;;4.88;;
71769;SDS011;66386;52.122;5.420;2023-05-10T15:11:58;10.05;;;4.55;;
71769;SDS011;66386;52.122;5.420;2023-05-10T15:14:24;9.77;;;5.80;;
71769;SDS011;66386;52.122;5.420;2023-05-10T15:16:51;8.13;;;4.43;;